sensor_id;sensor_type;location;lat;lon;timestamp;P1;durP1;ratioP1;P2;durP2;ratioP2
43986;SDS011;29650;47.378;8.300;2024-03-17T00:01:02;4.72;;;2.88;;
43986;SDS011;29650;47.378;8.300;2024-03-17T00:03:29;5.70;;;2.00;;
43986;SDS011;29650;47.378;8.300;2024-03-17T00:05:57;5.15;;;2.28;;
43986;SDS011;29650;47.378;8.300;2024-03-17T00:08:25;3.75;;;2.42;;
43986;SDS011;29650;47.378;8.300;2024-03-17T00:10:51;5.35;;;2.13;;
43986;SDS011;29650;47.378;8.300;2024-03-17T00:13:19;4.18;;;2.20;;
43986;SDS011;29650;47.378;8.300;2024-03-17T00:15:46;4.50;;;2.38;;
43986;SDS011;29650;47.378;8.300;2024-03-17T00:18:13;3.83;;;2.30;;
43986;SDS011;29650;47.378;8.300;2024-03-17T00:20:39;7.82;;;2.40;;
43986;SDS011;29650;47.378;8.300;2024-03-17T00:23:08;3.42;;;2.00;;
43986;SDS011;29650;47.378;8.300;2024-03-17T00:25:36;3.17;;;2.10;;
43986;SDS011;29650;47.378;8.300;2024-03-17T00:28:04;5.35;;;2.58;;
43986;SDS011;29650;47.378;8.300;2024-03-17T00:30:30;6.65;;;2.50;;
43986;SDS011;29650;47.378;8.300;2024-03-17T00:32:57;4.80;;;2.65;;
43986;SDS011;29650;47.378;8.300;2024-03-17T00:35:24;3.95;;;2.85;;
43986;SDS011;29650;47.378;8.300;2024-03-17T00:37:52;3.38;;;2.60;;
43986;SDS011;29650;47.378;8.300;2024-03-17T00:40:20;4.38;;;2.92;;
43986;SDS011;29650;47.378;8.300;2024-03-17T00:42:49;3.75;;;2.67;;
43986;SDS011;29650;47.378;8.300;2024-03-17T00:45:16;2.97;;;2.30;;
43986;SDS011;29650;47.378;8.300;2024-03-17T00:47:43;4.57;;;3.35;;
43986;SDS011;29650;47.378;8.300;2024-03-17T00:50:09;4.18;;;2.38;;
43986;SDS011;29650;47.378;8.300;2024-03-17T00:52:36;6.55;;;1.75;;
43986;SDS011;29650;47.378;8.300;2024-03-17T00:55:03;5.50;;;2.03;;
43986;SDS011;29650;47.378;8.300;2024-03-17T00:57:31;6.70;;;2.28;;
43986;SDS011;29650;47.378;8.300;2024-03-17T00:59:57;3.60;;;1.85;;
43986;SDS011;29650;47.378;8.300;2024-03-17T01:02:24;5.25;;;1.70;;
43986;SDS011;29650;47.378;8.300;2024-03-17T01:04:50;3.90;;;2.08;;
43986;SDS011;29650;47.378;8.300;2024-03-17T01:07:17;2.88;;;2.13;;
43986;SDS011;29650;47.378;8.300;2024-03-17T01:09:43;4.47;;;2.10;;
43986;SDS011;29650;47.378;8.300;2024-03-17T01:12:12;3.60;;;2.35;;
43986;SDS011;29650;47.378;8.300;2024-03-17T01:14:40;5.45;;;2.25;;
43986;SDS011;29650;47.378;8.300;2024-03-17T01:17:07;3.53;;;2.58;;
43986;SDS011;29650;47.378;8.300;2024-03-17T01:19:33;3.80;;;2.40;;
43986;SDS011;29650;47.378;8.300;2024-03-17T01:22:00;2.63;;;1.98;;
43986;SDS011;29650;47.378;8.300;2024-03-17T01:24:27;10.82;;;3.60;;
43986;SDS011;29650;47.378;8.300;2024-03-17T01:29:22;5.88;;;2.92;;
43986;SDS011;29650;47.378;8.300;2024-03-17T01:31:50;6.10;;;3.08;;
43986;SDS011;29650;47.378;8.300;2024-03-17T01:34:16;4.18;;;2.35;;
43986;SDS011;29650;47.378;8.300;2024-03-17T01:36:44;3.63;;;2.67;;
43986;SDS011;29650;47.378;8.300;2024-03-17T01:39:10;4.25;;;2.42;;
43986;SDS011;29650;47.378;8.300;2024-03-17T01:41:37;7.15;;;2.80;;
43986;SDS011;29650;47.378;8.300;2024-03-17T01:44:04;6.35;;;2.80;;
43986;SDS011;29650;47.378;8.300;2024-03-17T01:46:32;3.40;;;1.83;;
43986;SDS011;29650;47.378;8.300;2024-03-17T01:48:59;5.47;;;2.33;;
43986;SDS011;29650;47.378;8.300;2024-03-17T01:51:26;5.30;;;1.75;;
43986;SDS011;29650;47.378;8.300;2024-03-17T01:53:53;3.58;;;2.47;;
43986;SDS011;29650;47.378;8.300;2024-03-17T01:56:21;3.53;;;2.47;;
43986;SDS011;29650;47.378;8.300;2024-03-17T01:58:47;5.80;;;2.60;;
43986;SDS011;29650;47.378;8.300;2024-03-17T02:01:15;5.32;;;2.78;;
43986;SDS011;29650;47.378;8.300;2024-03-17T02:03:41;4.88;;;2.63;;
43986;SDS011;29650;47.378;8.300;2024-03-17T02:06:10;6.72;;;2.92;;
43986;SDS011;29650;47.378;8.300;2024-03-17T02:08:48;7.70;;;3.40;;
43986;SDS011;29650;47.378;8.300;2024-03-17T02:11:26;4.95;;;2.72;;
43986;SDS011;29650;47.378;8.300;2024-03-17T02:13:53;4.43;;;2.70;;
43986;SDS011;29650;47.378;8.300;2024-03-17T02:16:21;10.68;;;2.78;;
43986;SDS011;29650;47.378;8.300;2024-03-17T02:18:47;6.88;;;2.72;;
43986;SDS011;29650;47.378;8.300;2024-03-17T02:21:16;4.00;;;2.47;;
43986;SDS011;29650;47.378;8.300;2024-03-17T02:23:43;4.50;;;2.60;;
43986;SDS011;29650;47.378;8.300;2024-03-17T02:26:10;5.38;;;2.95;;
43986;SDS011;29650;47.378;8.300;2024-03-17T02:28:39;5.55;;;2.65;;
43986;SDS011;29650;47.378;8.300;2024-03-17T02:31:08;5.35;;;2.33;;
43986;SDS011;29650;47.378;8.300;2024-03-17T02:33:35;3.88;;;2.25;;
43986;SDS011;29650;47.378;8.300;2024-03-17T02:36:03;4.05;;;2.40;;
43986;SDS011;29650;47.378;8.300;2024-03-17T02:38:32;4.20;;;2.20;;
43986;SDS011;29650;47.378;8.300;2024-03-17T02:41:18;8.18;;;3.10;;
43986;SDS011;29650;47.378;8.300;2024-03-17T02:43:45;3.20;;;2.08;;
43986;SDS011;29650;47.378;8.300;2024-03-17T02:46:13;4.47;;;2.10;;
43986;SDS011;29650;47.378;8.300;2024-03-17T02:48:40;6.00;;;2.92;;
43986;SDS011;29650;47.378;8.300;2024-03-17T02:51:10;6.72;;;2.58;;
43986;SDS011;29650;47.378;8.300;2024-03-17T02:53:39;4.97;;;3.25;;
43986;SDS011;29650;47.378;8.300;2024-03-17T02:56:07;4.85;;;3.13;;
43986;SDS011;29650;47.378;8.300;2024-03-17T02:58:35;5.93;;;3.58;;
43986;SDS011;29650;47.378;8.300;2024-03-17T03:03:30;9.02;;;4.15;;
43986;SDS011;29650;47.378;8.300;2024-03-17T03:05:57;17.83;;;5.80;;
43986;SDS011;29650;47.378;8.300;2024-03-17T03:08:26;8.82;;;5.07;;
43986;SDS011;29650;47.378;8.300;2024-03-17T03:10:53;9.48;;;4.72;;
43986;SDS011;29650;47.378;8.300;2024-03-17T03:13:20;11.00;;;4.80;;
43986;SDS011;29650;47.378;8.300;2024-03-17T03:15:48;12.73;;;4.68;;
43986;SDS011;29650;47.378;8.300;2024-03-17T03:18:15;10.80;;;4.30;;
43986;SDS011;29650;47.378;8.300;2024-03-17T03:20:42;8.50;;;3.75;;
43986;SDS011;29650;47.378;8.300;2024-03-17T03:23:09;14.00;;;4.00;;
43986;SDS011;29650;47.378;8.300;2024-03-17T03:25:36;13.07;;;3.88;;
43986;SDS011;29650;47.378;8.300;2024-03-17T03:28:03;9.57;;;4.45;;
43986;SDS011;29650;47.378;8.300;2024-03-17T03:30:30;15.02;;;4.35;;
43986;SDS011;29650;47.378;8.300;2024-03-17T03:33:03;27.60;;;6.28;;
43986;SDS011;29650;47.378;8.300;2024-03-17T03:35:30;39.50;;;6.45;;
43986;SDS011;29650;47.378;8.300;2024-03-17T03:38:05;43.38;;;7.82;;
43986;SDS011;29650;47.378;8.300;2024-03-17T03:40:33;18.33;;;5.90;;
43986;SDS011;29650;47.378;8.300;2024-03-17T03:43:00;54.10;;;8.65;;
43986;SDS011;29650;47.378;8.300;2024-03-17T03:45:27;69.47;;;7.18;;
43986;SDS011;29650;47.378;8.300;2024-03-17T03:47:55;44.15;;;7.97;;
43986;SDS011;29650;47.378;8.300;2024-03-17T03:50:23;51.75;;;6.63;;
43986;SDS011;29650;47.378;8.300;2024-03-17T03:52:50;64.05;;;7.22;;
43986;SDS011;29650;47.378;8.300;2024-03-17T03:55:18;107.65;;;8.63;;
43986;SDS011;29650;47.378;8.300;2024-03-17T03:57:45;41.55;;;7.28;;
43986;SDS011;29650;47.378;8.300;2024-03-17T04:00:13;155.18;;;11.80;;
43986;SDS011;29650;47.378;8.300;2024-03-17T04:02:40;73.97;;;8.75;;
43986;SDS011;29650;47.378;8.300;2024-03-17T04:05:08;93.72;;;8.70;;
43986;SDS011;29650;47.378;8.300;2024-03-17T04:07:37;67.25;;;8.73;;
43986;SDS011;29650;47.378;8.300;2024-03-17T04:10:05;51.80;;;7.32;;
43986;SDS011;29650;47.378;8.300;2024-03-17T04:12:32;39.83;;;7.80;;
43986;SDS011;29650;47.378;8.300;2024-03-17T04:14:59;62.80;;;8.32;;
43986;SDS011;29650;47.378;8.300;2024-03-17T04:17:27;152.40;;;13.35;;
43986;SDS011;29650;47.378;8.300;2024-03-17T04:19:54;50.63;;;9.10;;
43986;SDS011;29650;47.378;8.300;2024-03-17T04:22:21;91.28;;;9.20;;
43986;SDS011;29650;47.378;8.300;2024-03-17T04:24:50;24.25;;;7.43;;
43986;SDS011;29650;47.378;8.300;2024-03-17T04:27:19;64.70;;;9.90;;
43986;SDS011;29650;47.378;8.300;2024-03-17T04:29:46;36.15;;;7.68;;
43986;SDS011;29650;47.378;8.300;2024-03-17T04:32:14;92.88;;;9.30;;
43986;SDS011;29650;47.378;8.300;2024-03-17T04:34:41;57.78;;;7.43;;
43986;SDS011;29650;47.378;8.300;2024-03-17T04:37:09;88.75;;;8.60;;
43986;SDS011;29650;47.378;8.300;2024-03-17T04:39:37;164.57;;;10.48;;
43986;SDS011;29650;47.378;8.300;2024-03-17T04:42:05;51.78;;;6.43;;
43986;SDS011;29650;47.378;8.300;2024-03-17T04:44:32;93.60;;;7.75;;
43986;SDS011;29650;47.378;8.300;2024-03-17T04:46:59;100.60;;;8.45;;
43986;SDS011;29650;47.378;8.300;2024-03-17T04:49:27;52.38;;;6.50;;
43986;SDS011;29650;47.378;8.300;2024-03-17T04:51:54;92.00;;;8.00;;
43986;SDS011;29650;47.378;8.300;2024-03-17T04:54:20;106.85;;;9.30;;
43986;SDS011;29650;47.378;8.300;2024-03-17T04:56:47;100.50;;;8.52;;
43986;SDS011;29650;47.378;8.300;2024-03-17T04:59:18;120.82;;;9.45;;
43986;SDS011;29650;47.378;8.300;2024-03-17T05:01:44;139.55;;;13.20;;
43986;SDS011;29650;47.378;8.300;2024-03-17T05:04:11;96.88;;;8.57;;
43986;SDS011;29650;47.378;8.300;2024-03-17T05:06:38;30.77;;;5.78;;
43986;SDS011;29650;47.378;8.300;2024-03-17T05:09:07;85.78;;;7.95;;
43986;SDS011;29650;47.378;8.300;2024-03-17T05:11:34;30.42;;;5.82;;
43986;SDS011;29650;47.378;8.300;2024-03-17T05:14:02;35.53;;;6.35;;
43986;SDS011;29650;47.378;8.300;2024-03-17T05:16:31;12.63;;;4.53;;
43986;SDS011;29650;47.378;8.300;2024-03-17T05:18:58;25.80;;;5.32;;
43986;SDS011;29650;47.378;8.300;2024-03-17T05:21:25;54.92;;;6.80;;
43986;SDS011;29650;47.378;8.300;2024-03-17T05:23:55;34.10;;;4.57;;
43986;SDS011;29650;47.378;8.300;2024-03-17T05:26:23;17.85;;;4.65;;
43986;SDS011;29650;47.378;8.300;2024-03-17T05:28:50;22.42;;;5.05;;
43986;SDS011;29650;47.378;8.300;2024-03-17T05:31:18;10.35;;;4.50;;
43986;SDS011;29650;47.378;8.300;2024-03-17T05:33:48;13.55;;;4.28;;
43986;SDS011;29650;47.378;8.300;2024-03-17T05:36:17;8.55;;;3.72;;
43986;SDS011;29650;47.378;8.300;2024-03-17T05:38:45;10.27;;;3.95;;
43986;SDS011;29650;47.378;8.300;2024-03-17T05:41:12;22.83;;;5.43;;
43986;SDS011;29650;47.378;8.300;2024-03-17T05:43:40;31.10;;;5.82;;
43986;SDS011;29650;47.378;8.300;2024-03-17T05:46:08;24.15;;;4.97;;
43986;SDS011;29650;47.378;8.300;2024-03-17T05:48:38;17.75;;;5.18;;
43986;SDS011;29650;47.378;8.300;2024-03-17T05:51:07;22.23;;;5.65;;
43986;SDS011;29650;47.378;8.300;2024-03-17T05:53:36;26.38;;;5.72;;
43986;SDS011;29650;47.378;8.300;2024-03-17T05:58:35;43.83;;;6.45;;
43986;SDS011;29650;47.378;8.300;2024-03-17T06:01:02;30.23;;;6.38;;
43986;SDS011;29650;47.378;8.300;2024-03-17T06:03:30;25.45;;;7.10;;
43986;SDS011;29650;47.378;8.300;2024-03-17T06:05:58;46.35;;;7.40;;
43986;SDS011;29650;47.378;8.300;2024-03-17T06:08:27;56.20;;;7.88;;
43986;SDS011;29650;47.378;8.300;2024-03-17T06:10:54;41.70;;;7.77;;
43986;SDS011;29650;47.378;8.300;2024-03-17T06:13:25;37.63;;;6.40;;
43986;SDS011;29650;47.378;8.300;2024-03-17T06:15:53;85.90;;;8.80;;
43986;SDS011;29650;47.378;8.300;2024-03-17T06:18:25;15.98;;;5.13;;
43986;SDS011;29650;47.378;8.300;2024-03-17T06:20:52;20.65;;;5.78;;
43986;SDS011;29650;47.378;8.300;2024-03-17T06:23:23;20.30;;;5.60;;
43986;SDS011;29650;47.378;8.300;2024-03-17T06:25:53;110.93;;;10.32;;
43986;SDS011;29650;47.378;8.300;2024-03-17T06:28:21;24.85;;;5.57;;
43986;SDS011;29650;47.378;8.300;2024-03-17T06:30:53;128.90;;;9.95;;
43986;SDS011;29650;47.378;8.300;2024-03-17T06:33:24;48.67;;;6.32;;
43986;SDS011;29650;47.378;8.300;2024-03-17T06:35:53;27.83;;;5.75;;
43986;SDS011;29650;47.378;8.300;2024-03-17T06:38:20;24.08;;;5.43;;
43986;SDS011;29650;47.378;8.300;2024-03-17T06:40:50;9.90;;;5.10;;
43986;SDS011;29650;47.378;8.300;2024-03-17T06:43:19;54.08;;;6.00;;
43986;SDS011;29650;47.378;8.300;2024-03-17T06:45:53;10.90;;;5.57;;
43986;SDS011;29650;47.378;8.300;2024-03-17T06:48:22;7.35;;;4.38;;
43986;SDS011;29650;47.378;8.300;2024-03-17T06:50:49;6.55;;;4.28;;
43986;SDS011;29650;47.378;8.300;2024-03-17T06:53:17;8.80;;;4.18;;
43986;SDS011;29650;47.378;8.300;2024-03-17T06:55:51;8.25;;;3.95;;
43986;SDS011;29650;47.378;8.300;2024-03-17T06:58:21;11.68;;;4.88;;
43986;SDS011;29650;47.378;8.300;2024-03-17T07:00:52;22.13;;;5.30;;
43986;SDS011;29650;47.378;8.300;2024-03-17T07:03:20;22.08;;;4.95;;
43986;SDS011;29650;47.378;8.300;2024-03-17T07:05:50;49.80;;;5.80;;
43986;SDS011;29650;47.378;8.300;2024-03-17T07:08:19;18.75;;;5.22;;
43986;SDS011;29650;47.378;8.300;2024-03-17T07:10:54;9.13;;;4.78;;
43986;SDS011;29650;47.378;8.300;2024-03-17T07:13:23;7.32;;;4.55;;
43986;SDS011;29650;47.378;8.300;2024-03-17T07:15:50;12.30;;;4.30;;
43986;SDS011;29650;47.378;8.300;2024-03-17T07:18:17;19.42;;;5.13;;
43986;SDS011;29650;47.378;8.300;2024-03-17T07:20:44;60.08;;;5.90;;
43986;SDS011;29650;47.378;8.300;2024-03-17T07:23:12;5.87;;;4.40;;
43986;SDS011;29650;47.378;8.300;2024-03-17T07:25:40;19.10;;;4.50;;
43986;SDS011;29650;47.378;8.300;2024-03-17T07:28:07;16.27;;;4.53;;
43986;SDS011;29650;47.378;8.300;2024-03-17T07:30:35;14.48;;;4.60;;
43986;SDS011;29650;47.378;8.300;2024-03-17T07:33:02;68.13;;;7.40;;
43986;SDS011;29650;47.378;8.300;2024-03-17T07:35:29;12.60;;;5.32;;
43986;SDS011;29650;47.378;8.300;2024-03-17T07:37:56;15.27;;;5.68;;
43986;SDS011;29650;47.378;8.300;2024-03-17T07:40:23;19.08;;;6.10;;
43986;SDS011;29650;47.378;8.300;2024-03-17T07:42:50;29.75;;;5.38;;
43986;SDS011;29650;47.378;8.300;2024-03-17T07:45:18;8.65;;;5.32;;
43986;SDS011;29650;47.378;8.300;2024-03-17T07:47:46;17.13;;;5.40;;
43986;SDS011;29650;47.378;8.300;2024-03-17T07:50:16;13.68;;;5.82;;
43986;SDS011;29650;47.378;8.300;2024-03-17T07:52:43;16.15;;;5.05;;
43986;SDS011;29650;47.378;8.300;2024-03-17T07:55:10;13.25;;;5.50;;
43986;SDS011;29650;47.378;8.300;2024-03-17T07:57:38;13.88;;;5.53;;
43986;SDS011;29650;47.378;8.300;2024-03-17T08:00:07;14.15;;;5.32;;
43986;SDS011;29650;47.378;8.300;2024-03-17T08:02:41;10.23;;;6.97;;
43986;SDS011;29650;47.378;8.300;2024-03-17T08:05:09;31.88;;;7.30;;
43986;SDS011;29650;47.378;8.300;2024-03-17T08:07:37;15.68;;;6.13;;
43986;SDS011;29650;47.378;8.300;2024-03-17T08:10:04;12.90;;;5.90;;
43986;SDS011;29650;47.378;8.300;2024-03-17T08:12:31;10.52;;;5.93;;
43986;SDS011;29650;47.378;8.300;2024-03-17T08:14:58;37.30;;;6.63;;
43986;SDS011;29650;47.378;8.300;2024-03-17T08:17:25;96.78;;;9.02;;
43986;SDS011;29650;47.378;8.300;2024-03-17T08:19:52;12.32;;;6.35;;
43986;SDS011;29650;47.378;8.300;2024-03-17T08:22:20;8.10;;;5.47;;
43986;SDS011;29650;47.378;8.300;2024-03-17T08:24:47;7.80;;;5.47;;
43986;SDS011;29650;47.378;8.300;2024-03-17T08:27:14;13.35;;;5.93;;
43986;SDS011;29650;47.378;8.300;2024-03-17T08:29:41;9.13;;;5.97;;
43986;SDS011;29650;47.378;8.300;2024-03-17T08:32:08;12.23;;;6.00;;
43986;SDS011;29650;47.378;8.300;2024-03-17T08:34:35;16.20;;;6.85;;
43986;SDS011;29650;47.378;8.300;2024-03-17T08:37:02;13.38;;;6.65;;
43986;SDS011;29650;47.378;8.300;2024-03-17T08:39:31;12.90;;;8.02;;
43986;SDS011;29650;47.378;8.300;2024-03-17T08:41:58;34.15;;;8.77;;
43986;SDS011;29650;47.378;8.300;2024-03-17T08:44:25;7.80;;;6.63;;
43986;SDS011;29650;47.378;8.300;2024-03-17T08:46:52;15.85;;;7.07;;
43986;SDS011;29650;47.378;8.300;2024-03-17T08:49:19;13.82;;;5.30;;
43986;SDS011;29650;47.378;8.300;2024-03-17T08:51:46;8.18;;;5.82;;
43986;SDS011;29650;47.378;8.300;2024-03-17T08:54:13;9.50;;;5.80;;
43986;SDS011;29650;47.378;8.300;2024-03-17T08:56:41;15.02;;;5.85;;
43986;SDS011;29650;47.378;8.300;2024-03-17T08:59:09;9.98;;;5.50;;
43986;SDS011;29650;47.378;8.300;2024-03-17T09:01:37;8.05;;;5.75;;
43986;SDS011;29650;47.378;8.300;2024-03-17T09:04:04;9.05;;;6.45;;
43986;SDS011;29650;47.378;8.300;2024-03-17T09:06:31;9.32;;;6.65;;
43986;SDS011;29650;47.378;8.300;2024-03-17T09:08:58;9.57;;;7.07;;
43986;SDS011;29650;47.378;8.300;2024-03-17T09:11:25;14.35;;;8.85;;
43986;SDS011;29650;47.378;8.300;2024-03-17T09:13:56;14.38;;;7.78;;
43986;SDS011;29650;47.378;8.300;2024-03-17T09:16:24;9.95;;;7.75;;
43986;SDS011;29650;47.378;8.300;2024-03-17T09:21:20;10.48;;;7.40;;
43986;SDS011;29650;47.378;8.300;2024-03-17T09:23:47;12.93;;;7.85;;
43986;SDS011;29650;47.378;8.300;2024-03-17T09:26:15;11.30;;;8.13;;
43986;SDS011;29650;47.378;8.300;2024-03-17T09:28:42;13.05;;;8.57;;
43986;SDS011;29650;47.378;8.300;2024-03-17T09:31:11;15.68;;;8.75;;
43986;SDS011;29650;47.378;8.300;2024-03-17T09:33:38;18.30;;;8.52;;
43986;SDS011;29650;47.378;8.300;2024-03-17T09:36:06;10.07;;;7.55;;
43986;SDS011;29650;47.378;8.300;2024-03-17T09:38:36;13.20;;;7.75;;
43986;SDS011;29650;47.378;8.300;2024-03-17T09:41:03;12.40;;;8.27;;
43986;SDS011;29650;47.378;8.300;2024-03-17T09:43:32;11.52;;;7.70;;
43986;SDS011;29650;47.378;8.300;2024-03-17T09:46:01;14.20;;;8.75;;
43986;SDS011;29650;47.378;8.300;2024-03-17T09:50:58;11.88;;;7.55;;
43986;SDS011;29650;47.378;8.300;2024-03-17T09:53:27;13.93;;;8.55;;
43986;SDS011;29650;47.378;8.300;2024-03-17T09:55:56;13.40;;;9.07;;
43986;SDS011;29650;47.378;8.300;2024-03-17T09:58:25;12.07;;;8.10;;
43986;SDS011;29650;47.378;8.300;2024-03-17T10:00:52;12.82;;;9.10;;
43986;SDS011;29650;47.378;8.300;2024-03-17T10:06:16;11.95;;;7.65;;
43986;SDS011;29650;47.378;8.300;2024-03-17T10:08:45;11.38;;;8.38;;
43986;SDS011;29650;47.378;8.300;2024-03-17T10:11:13;10.02;;;7.40;;
43986;SDS011;29650;47.378;8.300;2024-03-17T10:13:41;10.13;;;7.25;;
43986;SDS011;29650;47.378;8.300;2024-03-17T10:16:20;8.80;;;6.72;;
43986;SDS011;29650;47.378;8.300;2024-03-17T10:18:54;11.30;;;6.95;;
43986;SDS011;29650;47.378;8.300;2024-03-17T10:21:35;13.02;;;7.50;;
43986;SDS011;29650;47.378;8.300;2024-03-17T10:24:09;12.52;;;7.20;;
43986;SDS011;29650;47.378;8.300;2024-03-17T10:26:37;7.72;;;5.97;;
43986;SDS011;29650;47.378;8.300;2024-03-17T10:29:15;8.75;;;6.22;;
43986;SDS011;29650;47.378;8.300;2024-03-17T10:31:47;8.48;;;6.80;;
43986;SDS011;29650;47.378;8.300;2024-03-17T10:34:16;8.70;;;6.65;;
43986;SDS011;29650;47.378;8.300;2024-03-17T10:36:43;9.52;;;6.93;;
43986;SDS011;29650;47.378;8.300;2024-03-17T10:41:58;8.55;;;6.43;;
43986;SDS011;29650;47.378;8.300;2024-03-17T10:44:26;9.93;;;6.70;;
43986;SDS011;29650;47.378;8.300;2024-03-17T10:46:55;8.93;;;7.03;;
43986;SDS011;29650;47.378;8.300;2024-03-17T10:49:27;9.18;;;6.22;;
43986;SDS011;29650;47.378;8.300;2024-03-17T10:51:57;9.63;;;6.13;;
43986;SDS011;29650;47.378;8.300;2024-03-17T10:54:25;9.23;;;6.20;;
43986;SDS011;29650;47.378;8.300;2024-03-17T10:56:54;7.15;;;6.00;;
43986;SDS011;29650;47.378;8.300;2024-03-17T10:59:23;8.85;;;6.05;;
43986;SDS011;29650;47.378;8.300;2024-03-17T11:01:59;11.70;;;6.68;;
43986;SDS011;29650;47.378;8.300;2024-03-17T11:04:29;7.30;;;5.60;;
43986;SDS011;29650;47.378;8.300;2024-03-17T11:06:56;8.30;;;6.10;;
43986;SDS011;29650;47.378;8.300;2024-03-17T11:09:25;8.30;;;5.13;;
43986;SDS011;29650;47.378;8.300;2024-03-17T11:11:53;8.73;;;5.32;;
43986;SDS011;29650;47.378;8.300;2024-03-17T11:14:20;10.48;;;4.95;;
43986;SDS011;29650;47.378;8.300;2024-03-17T11:16:48;6.85;;;4.80;;
43986;SDS011;29650;47.378;8.300;2024-03-17T11:19:15;6.90;;;5.35;;
43986;SDS011;29650;47.378;8.300;2024-03-17T11:21:43;8.00;;;5.68;;
43986;SDS011;29650;47.378;8.300;2024-03-17T11:24:18;8.43;;;5.60;;
43986;SDS011;29650;47.378;8.300;2024-03-17T11:26:46;6.75;;;5.00;;
43986;SDS011;29650;47.378;8.300;2024-03-17T11:29:25;8.25;;;4.88;;
43986;SDS011;29650;47.378;8.300;2024-03-17T11:31:54;13.80;;;4.97;;
43986;SDS011;29650;47.378;8.300;2024-03-17T11:34:35;6.10;;;4.90;;
43986;SDS011;29650;47.378;8.300;2024-03-17T11:37:05;6.90;;;4.68;;
43986;SDS011;29650;47.378;8.300;2024-03-17T11:39:53;7.18;;;4.60;;
43986;SDS011;29650;47.378;8.300;2024-03-17T11:42:23;11.13;;;4.85;;
43986;SDS011;29650;47.378;8.300;2024-03-17T11:45:01;7.68;;;5.80;;
43986;SDS011;29650;47.378;8.300;2024-03-17T11:47:37;9.23;;;5.35;;
43986;SDS011;29650;47.378;8.300;2024-03-17T11:50:06;10.48;;;5.03;;
43986;SDS011;29650;47.378;8.300;2024-03-17T11:52:36;6.72;;;5.20;;
43986;SDS011;29650;47.378;8.300;2024-03-17T11:55:05;9.55;;;5.32;;
43986;SDS011;29650;47.378;8.300;2024-03-17T11:57:40;8.32;;;4.90;;
43986;SDS011;29650;47.378;8.300;2024-03-17T12:00:18;7.10;;;4.60;;
43986;SDS011;29650;47.378;8.300;2024-03-17T12:02:47;9.57;;;4.50;;
43986;SDS011;29650;47.378;8.300;2024-03-17T12:05:14;7.57;;;4.90;;
43986;SDS011;29650;47.378;8.300;2024-03-17T12:07:43;6.95;;;4.65;;
43986;SDS011;29650;47.378;8.300;2024-03-17T12:10:10;7.47;;;4.55;;
43986;SDS011;29650;47.378;8.300;2024-03-17T12:12:38;7.88;;;5.03;;
43986;SDS011;29650;47.378;8.300;2024-03-17T12:15:13;6.95;;;4.40;;
43986;SDS011;29650;47.378;8.300;2024-03-17T12:17:42;5.55;;;4.13;;
43986;SDS011;29650;47.378;8.300;2024-03-17T12:20:15;8.32;;;4.47;;
43986;SDS011;29650;47.378;8.300;2024-03-17T12:22:44;7.60;;;4.68;;
43986;SDS011;29650;47.378;8.300;2024-03-17T12:25:16;6.82;;;4.93;;
43986;SDS011;29650;47.378;8.300;2024-03-17T12:27:43;7.72;;;4.28;;
43986;SDS011;29650;47.378;8.300;2024-03-17T12:30:11;8.23;;;4.30;;
43986;SDS011;29650;47.378;8.300;2024-03-17T12:32:38;8.60;;;4.50;;
43986;SDS011;29650;47.378;8.300;2024-03-17T12:35:11;6.03;;;4.50;;
43986;SDS011;29650;47.378;8.300;2024-03-17T12:37:40;5.40;;;3.90;;
43986;SDS011;29650;47.378;8.300;2024-03-17T12:40:20;6.90;;;4.00;;
43986;SDS011;29650;47.378;8.300;2024-03-17T12:42:48;6.15;;;3.55;;
43986;SDS011;29650;47.378;8.300;2024-03-17T12:45:18;6.88;;;3.75;;
43986;SDS011;29650;47.378;8.300;2024-03-17T12:47:46;6.80;;;3.28;;
43986;SDS011;29650;47.378;8.300;2024-03-17T12:50:13;5.68;;;3.42;;
43986;SDS011;29650;47.378;8.300;2024-03-17T12:52:43;5.57;;;3.10;;
43986;SDS011;29650;47.378;8.300;2024-03-17T12:55:19;6.03;;;2.58;;
43986;SDS011;29650;47.378;8.300;2024-03-17T12:58:07;7.32;;;2.75;;
43986;SDS011;29650;47.378;8.300;2024-03-17T13:00:59;5.55;;;3.00;;
43986;SDS011;29650;47.378;8.300;2024-03-17T13:03:27;4.63;;;2.38;;
43986;SDS011;29650;47.378;8.300;2024-03-17T13:08:25;4.65;;;2.47;;
43986;SDS011;29650;47.378;8.300;2024-03-17T13:10:52;3.72;;;2.80;;
43986;SDS011;29650;47.378;8.300;2024-03-17T13:13:18;7.70;;;2.90;;
43986;SDS011;29650;47.378;8.300;2024-03-17T13:15:45;6.63;;;3.47;;
43986;SDS011;29650;47.378;8.300;2024-03-17T13:18:15;5.80;;;2.88;;
43986;SDS011;29650;47.378;8.300;2024-03-17T13:20:44;6.47;;;3.03;;
43986;SDS011;29650;47.378;8.300;2024-03-17T13:23:11;4.30;;;2.40;;
43986;SDS011;29650;47.378;8.300;2024-03-17T13:25:40;5.43;;;2.78;;
43986;SDS011;29650;47.378;8.300;2024-03-17T13:28:08;7.30;;;2.70;;
43986;SDS011;29650;47.378;8.300;2024-03-17T13:30:35;7.88;;;2.75;;
43986;SDS011;29650;47.378;8.300;2024-03-17T13:33:02;5.88;;;2.35;;
43986;SDS011;29650;47.378;8.300;2024-03-17T13:35:33;6.13;;;2.40;;
43986;SDS011;29650;47.378;8.300;2024-03-17T13:38:04;6.13;;;2.13;;
43986;SDS011;29650;47.378;8.300;2024-03-17T13:40:35;5.78;;;2.15;;
43986;SDS011;29650;47.378;8.300;2024-03-17T13:43:05;4.35;;;2.20;;
43986;SDS011;29650;47.378;8.300;2024-03-17T13:45:37;3.58;;;1.88;;
43986;SDS011;29650;47.378;8.300;2024-03-17T13:48:05;3.40;;;1.85;;
43986;SDS011;29650;47.378;8.300;2024-03-17T13:50:35;5.68;;;2.22;;
43986;SDS011;29650;47.378;8.300;2024-03-17T13:53:03;6.93;;;2.20;;
43986;SDS011;29650;47.378;8.300;2024-03-17T13:55:30;5.43;;;2.67;;
43986;SDS011;29650;47.378;8.300;2024-03-17T13:57:58;5.15;;;2.28;;
43986;SDS011;29650;47.378;8.300;2024-03-17T14:00:27;6.18;;;2.38;;
43986;SDS011;29650;47.378;8.300;2024-03-17T14:02:56;5.75;;;2.45;;
43986;SDS011;29650;47.378;8.300;2024-03-17T14:05:24;7.68;;;2.83;;
43986;SDS011;29650;47.378;8.300;2024-03-17T14:07:52;10.43;;;3.63;;
43986;SDS011;29650;47.378;8.300;2024-03-17T14:10:20;7.68;;;2.50;;
43986;SDS011;29650;47.378;8.300;2024-03-17T14:12:48;4.07;;;2.87;;
43986;SDS011;29650;47.378;8.300;2024-03-17T14:15:16;5.82;;;2.45;;
43986;SDS011;29650;47.378;8.300;2024-03-17T14:17:45;11.70;;;5.28;;
43986;SDS011;29650;47.378;8.300;2024-03-17T14:20:14;7.25;;;3.92;;
43986;SDS011;29650;47.378;8.300;2024-03-17T14:25:12;6.75;;;3.47;;
43986;SDS011;29650;47.378;8.300;2024-03-17T14:27:42;7.30;;;3.30;;
43986;SDS011;29650;47.378;8.300;2024-03-17T14:30:09;9.98;;;5.53;;
43986;SDS011;29650;47.378;8.300;2024-03-17T14:32:38;7.35;;;4.88;;
43986;SDS011;29650;47.378;8.300;2024-03-17T14:35:07;8.38;;;4.13;;
43986;SDS011;29650;47.378;8.300;2024-03-17T14:37:38;7.75;;;3.33;;
43986;SDS011;29650;47.378;8.300;2024-03-17T14:40:07;6.13;;;3.50;;
43986;SDS011;29650;47.378;8.300;2024-03-17T14:42:41;6.57;;;3.53;;
43986;SDS011;29650;47.378;8.300;2024-03-17T14:45:09;6.28;;;2.70;;
43986;SDS011;29650;47.378;8.300;2024-03-17T14:47:37;5.10;;;2.50;;
43986;SDS011;29650;47.378;8.300;2024-03-17T14:50:04;4.78;;;2.47;;
43986;SDS011;29650;47.378;8.300;2024-03-17T14:52:34;4.25;;;3.28;;
43986;SDS011;29650;47.378;8.300;2024-03-17T14:55:01;5.10;;;2.03;;
43986;SDS011;29650;47.378;8.300;2024-03-17T14:57:29;6.63;;;2.60;;
43986;SDS011;29650;47.378;8.300;2024-03-17T14:59:56;5.70;;;2.78;;
43986;SDS011;29650;47.378;8.300;2024-03-17T15:02:23;3.10;;;2.28;;
43986;SDS011;29650;47.378;8.300;2024-03-17T15:04:51;8.20;;;2.75;;
43986;SDS011;29650;47.378;8.300;2024-03-17T15:07:20;7.47;;;2.55;;
43986;SDS011;29650;47.378;8.300;2024-03-17T15:09:48;3.70;;;1.90;;
43986;SDS011;29650;47.378;8.300;2024-03-17T15:12:15;6.63;;;2.60;;